Time;durP1;ratioP1;P1;durP2;ratioP2;P2;SDS_P1;SDS_P2;PMS_P1;PMS_P2;Temp;Humidity;BMP_temperature;BMP_pressure;BME280_temperature;BME280_humidity;BME280_pressure;Samples;Min_cycle;Max_cycle;Signal;HPM_P1;HPM_P2
2020/12/24 00:00:32;;;;;;;;;;;6.50;97.30;;;;;;4959935;29;20278;-76
2020/12/24 00:02:58;;;;;;;;;;;6.50;97.30;;;;;;4973606;28;19910;-75
2020/12/24 00:05:24;;;;;;;;;;;6.60;97.20;;;;;;4973379;28;19928;-76
2020/12/24 00:07:49;;;;;;;;;;;6.60;97.20;;;;;;4957752;29;20426;-76
2020/12/24 00:10:16;;;;;;;;;;;6.60;97.20;;;;;;4957613;29;19938;-76
2020/12/24 00:12:41;;;;;;;;;;;6.60;97.20;;;;;;4955894;28;19910;-76
2020/12/24 00:15:07;;;;;;;;;;;6.60;97.20;;;;;;4955963;28;20025;-76
2020/12/24 00:17:33;;;;;;;;;;;6.60;97.20;;;;;;4955489;28;20002;-75
2020/12/24 00:19:58;;;;;;;;;;;6.60;97.20;;;;;;4958405;28;19918;-77
2020/12/24 00:22:24;;;;;;;;;;;6.60;97.10;;;;;;4957805;29;19910;-76
2020/12/24 00:24:49;;;;;;;;;;;6.60;97.00;;;;;;4971721;28;19911;-76
2020/12/24 00:27:15;;;;;;;;;;;6.70;97.00;;;;;;4956079;28;19910;-76
2020/12/24 00:29:40;;;;;;;;;;;6.60;96.90;;;;;;4958512;29;20268;-76
2020/12/24 00:32:06;;;;;;;;;;;6.60;96.90;;;;;;4960381;28;20473;-75
2020/12/24 00:34:31;;;;;;;;;;;6.70;96.90;;;;;;4960332;29;19910;-76
2020/12/24 00:36:57;;;;;;;;;;;6.70;96.80;;;;;;4958697;29;20372;-76
2020/12/24 00:39:23;;;;;;;;;;;6.60;96.70;;;;;;4960339;28;20433;-76
2020/12/24 00:41:48;;;;;;;;;;;6.60;96.70;;;;;;4960602;29;20397;-76
2020/12/24 00:44:14;;;;;;;;;;;6.60;96.60;;;;;;4961581;29;19907;-77
2020/12/24 00:46:39;;;;;;;;;;;6.60;96.50;;;;;;4957425;29;19920;-76
2020/12/24 00:49:05;;;;;;;;;;;6.60;96.50;;;;;;4960702;29;20000;-76
2020/12/24 00:51:30;;;;;;;;;;;6.60;96.50;;;;;;4975253;28;20426;-76
2020/12/24 00:53:56;;;;;;;;;;;6.60;96.60;;;;;;4960515;29;19910;-76
2020/12/24 00:56:21;;;;;;;;;;;6.60;96.60;;;;;;4958470;29;20037;-76
2020/12/24 00:58:46;;;;;;;;;;;6.60;96.60;;;;;;4960220;29;19970;-75
2020/12/24 01:01:12;;;;;;;;;;;6.60;96.60;;;;;;4960263;29;19921;-75
2020/12/24 01:03:37;;;;;;;;;;;6.60;96.60;;;;;;4962472;29;19915;-76
2020/12/24 01:06:03;;;;;;;;;;;6.60;96.60;;;;;;4959735;29;19922;-76
2020/12/24 01:08:30;;;;;;;;;;;6.60;96.50;;;;;;4962264;29;19928;-75
2020/12/24 01:10:56;;;;;;;;;;;6.70;96.50;;;;;;4960359;28;19965;-76
2020/12/24 01:13:21;;;;;;;;;;;6.60;96.60;;;;;;4960556;29;19910;-76
2020/12/24 01:15:47;;;;;;;;;;;6.60;96.60;;;;;;4960188;29;19933;-76
2020/12/24 01:18:12;;;;;;;;;;;6.50;96.60;;;;;;4959843;29;20367;-75
2020/12/24 01:20:38;;;;;;;;;;;6.50;96.70;;;;;;4960577;29;19910;-75
2020/12/24 01:23:05;;;;;;;;;;;6.60;96.80;;;;;;4960839;29;20283;-75
2020/12/24 01:25:31;;;;;;;;;;;6.60;96.70;;;;;;4961912;29;19921;-76
2020/12/24 01:27:56;;;;;;;;;;;6.60;96.80;;;;;;4961088;28;19910;-75
2020/12/24 01:30:22;;;;;;;;;;;6.50;96.70;;;;;;4960381;29;19913;-76
2020/12/24 01:32:48;;;;;;;;;;;6.50;96.80;;;;;;4976515;28;19917;-77
2020/12/24 01:35:13;;;;;;;;;;;6.50;96.80;;;;;;4974830;28;19977;-75
2020/12/24 01:37:38;;;;;;;;;;;6.50;96.90;;;;;;4960535;28;19968;-75
2020/12/24 01:40:04;;;;;;;;;;;6.50;96.90;;;;;;4958233;28;20356;-76
2020/12/24 01:42:30;;;;;;;;;;;6.50;96.90;;;;;;4959938;28;19910;-76
2020/12/24 01:44:55;;;;;;;;;;;6.50;96.90;;;;;;4961064;29;19906;-75
2020/12/24 01:47:21;;;;;;;;;;;6.60;96.90;;;;;;4961297;28;20375;-76
2020/12/24 01:49:47;;;;;;;;;;;6.60;96.90;;;;;;4958781;29;19910;-75
2020/12/24 01:52:26;;;;;;;;;;;6.60;96.90;;;;;;4975828;28;20451;-77
2020/12/24 01:54:51;;;;;;;;;;;6.60;96.90;;;;;;4960951;28;19910;-76
2020/12/24 01:57:17;;;;;;;;;;;6.60;96.90;;;;;;4978789;28;19917;-75
2020/12/24 01:59:42;;;;;;;;;;;6.60;96.80;;;;;;4976882;28;19918;-75
2020/12/24 02:02:08;;;;;;;;;;;6.60;96.80;;;;;;4978746;28;20381;-78
2020/12/24 02:04:33;;;;;;;;;;;6.60;96.80;;;;;;4977695;28;19911;-76
2020/12/24 02:06:59;;;;;;;;;;;6.60;96.80;;;;;;4976267;28;19918;-81
2020/12/24 02:09:24;;;;;;;;;;;6.60;96.70;;;;;;4959398;29;20291;-76
2020/12/24 02:11:50;;;;;;;;;;;6.60;96.70;;;;;;4958833;29;19910;-76
2020/12/24 02:14:16;;;;;;;;;;;6.60;96.70;;;;;;4960155;29;19910;-76
2020/12/24 02:16:41;;;;;;;;;;;6.60;96.70;;;;;;4974254;28;19918;-76
2020/12/24 02:19:07;;;;;;;;;;;6.60;96.60;;;;;;4960139;29;19974;-75
2020/12/24 02:21:33;;;;;;;;;;;6.60;96.60;;;;;;4960375;29;20029;-76
2020/12/24 02:23:59;;;;;;;;;;;6.60;96.60;;;;;;4959113;28;19910;-75
2020/12/24 02:26:25;;;;;;;;;;;6.50;96.60;;;;;;4959934;28;19921;-76
2020/12/24 02:28:50;;;;;;;;;;;6.50;96.50;;;;;;4959616;29;19911;-77
2020/12/24 02:31:16;;;;;;;;;;;6.50;96.50;;;;;;4959533;29;19910;-76
2020/12/24 02:33:41;;;;;;;;;;;6.50;96.50;;;;;;4959398;29;19985;-75
2020/12/24 02:36:07;;;;;;;;;;;6.40;96.40;;;;;;4959178;29;19910;-76
2020/12/24 02:38:32;;;;;;;;;;;6.40;96.40;;;;;;4958006;28;19941;-75
2020/12/24 02:40:58;;;;;;;;;;;6.40;96.40;;;;;;4958765;29;19910;-75
2020/12/24 02:43:23;;;;;;;;;;;6.30;96.30;;;;;;4975723;28;19915;-77
2020/12/24 02:45:49;;;;;;;;;;;6.40;96.40;;;;;;4959399;28;20299;-76
2020/12/24 02:48:14;;;;;;;;;;;6.30;96.40;;;;;;4973379;28;20375;-76
2020/12/24 02:50:40;;;;;;;;;;;6.30;96.50;;;;;;4959899;28;19910;-76
2020/12/24 02:53:05;;;;;;;;;;;6.30;96.50;;;;;;4957473;29;20356;-75
2020/12/24 02:55:31;;;;;;;;;;;6.30;96.40;;;;;;4958280;29;20025;-76
2020/12/24 02:57:56;;;;;;;;;;;6.30;96.50;;;;;;4972482;28;19918;-75
2020/12/24 03:00:22;;;;;;;;;;;6.30;96.50;;;;;;4972485;28;19929;-76
2020/12/24 03:02:47;;;;;;;;;;;6.20;96.40;;;;;;4957872;29;19907;-75
2020/12/24 03:05:13;;;;;;;;;;;6.20;96.60;;;;;;4958294;29;20380;-76
2020/12/24 03:07:38;;;;;;;;;;;6.20;96.30;;;;;;4960379;29;19918;-76
2020/12/24 03:10:04;;;;;;;;;;;6.10;96.20;;;;;;4958129;29;20371;-75
2020/12/24 03:12:30;;;;;;;;;;;6.10;96.30;;;;;;4959737;28;19910;-76
2020/12/24 03:14:55;;;;;;;;;;;6.10;96.30;;;;;;4957529;29;19906;-76
2020/12/24 03:17:21;;;;;;;;;;;6.10;96.30;;;;;;4957765;29;20522;-76
2020/12/24 03:19:46;;;;;;;;;;;6.10;96.30;;;;;;4957187;29;19917;-76
2020/12/24 03:22:12;;;;;;;;;;;6.10;96.20;;;;;;4958713;29;19910;-76
2020/12/24 03:24:38;;;;;;;;;;;6.10;96.20;;;;;;4959087;28;19918;-76
2020/12/24 03:27:03;;;;;;;;;;;6.10;96.20;;;;;;4959158;29;19922;-75
2020/12/24 03:29:29;;;;;;;;;;;6.00;96.10;;;;;;4959546;29;19911;-76
2020/12/24 03:31:54;;;;;;;;;;;6.00;96.10;;;;;;4960079;29;19910;-76
2020/12/24 03:34:20;;;;;;;;;;;6.00;96.10;;;;;;4957274;29;19910;-77
2020/12/24 03:36:45;;;;;;;;;;;5.90;96.10;;;;;;4969586;28;19954;-75
2020/12/24 03:39:11;;;;;;;;;;;5.90;96.20;;;;;;4969352;28;19918;-76
2020/12/24 03:41:36;;;;;;;;;;;5.90;96.20;;;;;;4955463;29;19910;-76
2020/12/24 03:44:02;;;;;;;;;;;5.90;96.30;;;;;;4969946;28;19906;-76
2020/12/24 03:46:27;;;;;;;;;;;5.90;96.40;;;;;;4954586;29;19918;-75
2020/12/24 03:48:53;;;;;;;;;;;5.90;96.40;;;;;;4954864;29;19910;-75
2020/12/24 03:51:19;;;;;;;;;;;5.90;96.50;;;;;;4970877;28;19989;-76
2020/12/24 03:53:44;;;;;;;;;;;5.90;96.50;;;;;;4955963;29;19907;-75
2020/12/24 03:56:10;;;;;;;;;;;5.90;96.50;;;;;;4971913;28;20001;-75
2020/12/24 03:58:35;;;;;;;;;;;5.80;96.50;;;;;;4951765;29;19923;-75
2020/12/24 04:01:01;;;;;;;;;;;5.80;96.50;;;;;;4952920;29;19945;-76
2020/12/24 04:03:27;;;;;;;;;;;5.80;96.40;;;;;;4952947;28;20371;-76
2020/12/24 04:05:52;;;;;;;;;;;5.80;96.40;;;;;;4953363;28;19920;-75
2020/12/24 04:08:18;;;;;;;;;;;5.80;96.40;;;;;;4967720;28;19914;-75
2020/12/24 04:10:43;;;;;;;;;;;5.70;96.40;;;;;;4953677;29;20006;-75
2020/12/24 04:13:09;;;;;;;;;;;5.80;96.40;;;;;;4954897;29;20343;-75
2020/12/24 04:15:34;;;;;;;;;;;5.70;96.40;;;;;;4971811;28;19910;-76
2020/12/24 04:18:00;;;;;;;;;;;5.80;96.40;;;;;;4970053;28;19957;-78
2020/12/24 04:20:25;;;;;;;;;;;5.70;96.40;;;;;;4970015;28;19953;-75
2020/12/24 04:22:51;;;;;;;;;;;5.70;96.30;;;;;;4953329;29;20009;-76
2020/12/24 04:25:16;;;;;;;;;;;5.70;96.30;;;;;;4954257;29;20306;-76
2020/12/24 04:27:42;;;;;;;;;;;5.60;96.20;;;;;;4953736;29;20421;-75
2020/12/24 04:30:07;;;;;;;;;;;5.60;96.10;;;;;;4954105;29;19932;-76
2020/12/24 04:32:33;;;;;;;;;;;5.60;96.10;;;;;;4952212;29;19907;-75
2020/12/24 04:34:59;;;;;;;;;;;5.60;96.10;;;;;;4954536;28;19906;-74
2020/12/24 04:37:24;;;;;;;;;;;5.50;96.10;;;;;;4971284;28;19918;-76
2020/12/24 04:39:50;;;;;;;;;;;5.50;96.10;;;;;;4957551;28;19938;-78
2020/12/24 04:42:16;;;;;;;;;;;5.50;96.20;;;;;;4957516;29;19979;-77
2020/12/24 04:44:42;;;;;;;;;;;5.50;96.20;;;;;;4956731;28;19953;-81
2020/12/24 04:47:08;;;;;;;;;;;5.50;96.20;;;;;;4972918;28;19918;-76
2020/12/24 04:49:34;;;;;;;;;;;5.50;96.20;;;;;;4953934;28;19910;-77
2020/12/24 04:52:00;;;;;;;;;;;5.50;96.10;;;;;;4952610;28;20702;-75
2020/12/24 04:54:26;;;;;;;;;;;5.50;96.00;;;;;;4967019;28;20695;-76
2020/12/24 04:56:51;;;;;;;;;;;5.40;95.90;;;;;;4952542;29;19911;-75
2020/12/24 04:59:17;;;;;;;;;;;5.40;96.00;;;;;;4954233;29;19922;-75
2020/12/24 05:01:43;;;;;;;;;;;5.40;96.10;;;;;;4952140;28;19910;-76
2020/12/24 05:04:09;;;;;;;;;;;5.30;96.10;;;;;;4952102;28;19980;-75
2020/12/24 05:06:34;;;;;;;;;;;5.30;96.20;;;;;;4954410;29;20342;-76
2020/12/24 05:09:00;;;;;;;;;;;5.40;96.30;;;;;;4951765;29;19911;-75
2020/12/24 05:11:26;;;;;;;;;;;5.40;96.40;;;;;;4966305;28;19917;-76
2020/12/24 05:13:52;;;;;;;;;;;5.50;96.50;;;;;;4951661;28;20395;-75
2020/12/24 05:16:17;;;;;;;;;;;5.50;96.50;;;;;;4955808;28;19938;-76
2020/12/24 05:18:43;;;;;;;;;;;5.50;96.50;;;;;;4956614;29;19910;-76
2020/12/24 05:21:09;;;;;;;;;;;5.50;96.50;;;;;;4956991;28;19910;-75
2020/12/24 05:23:34;;;;;;;;;;;5.50;96.40;;;;;;4970397;28;19980;-76
2020/12/24 05:26:00;;;;;;;;;;;5.50;96.40;;;;;;4970662;28;19947;-76
2020/12/24 05:28:30;;;;;;;;;;;5.50;96.30;;;;;;4971460;28;20444;-77
2020/12/24 05:30:55;;;;;;;;;;;5.50;96.30;;;;;;4957972;28;19907;-75
2020/12/24 05:33:47;;;;;;;;;;;5.50;96.40;;;;;;4955206;29;19914;-76
2020/12/24 05:36:15;;;;;;;;;;;5.50;96.40;;;;;;4954643;28;19911;-76
2020/12/24 05:38:41;;;;;;;;;;;5.50;96.40;;;;;;4955824;28;20650;-75
2020/12/24 05:41:25;;;;;;;;;;;5.50;96.30;;;;;;4958248;28;19911;-74
2020/12/24 05:43:55;;;;;;;;;;;5.50;96.30;;;;;;4956979;29;19985;-75
2020/12/24 05:46:21;;;;;;;;;;;5.60;96.30;;;;;;4957141;28;19973;-76
2020/12/24 05:48:46;;;;;;;;;;;5.60;96.20;;;;;;4956275;28;19910;-75
2020/12/24 05:51:16;;;;;;;;;;;5.60;96.10;;;;;;4957314;29;19910;-75
2020/12/24 05:53:41;;;;;;;;;;;5.60;96.10;;;;;;4958494;28;19910;-76
2020/12/24 05:56:07;;;;;;;;;;;5.60;96.20;;;;;;4957451;29;20390;-75
2020/12/24 05:58:39;;;;;;;;;;;5.60;96.30;;;;;;4958416;28;19922;-75
2020/12/24 06:01:11;;;;;;;;;;;5.70;96.40;;;;;;4973909;28;19990;-76
2020/12/24 06:03:43;;;;;;;;;;;5.70;96.40;;;;;;4959462;28;20439;-76
2020/12/24 06:06:12;;;;;;;;;;;5.70;96.50;;;;;;4958342;28;19922;-76
2020/12/24 06:08:45;;;;;;;;;;;5.80;96.60;;;;;;4973414;28;19915;-76
2020/12/24 06:11:10;;;;;;;;;;;5.80;96.60;;;;;;4974806;28;19913;-77
2020/12/24 06:13:48;;;;;;;;;;;5.90;96.60;;;;;;4959919;29;20473;-77
2020/12/24 06:16:14;;;;;;;;;;;5.90;96.60;;;;;;4975079;28;19911;-78
2020/12/24 06:18:49;;;;;;;;;;;6.00;96.60;;;;;;4974756;28;19910;-76
2020/12/24 06:21:15;;;;;;;;;;;6.00;96.60;;;;;;4974283;28;19933;-76
2020/12/24 06:23:49;;;;;;;;;;;6.10;96.60;;;;;;4961019;28;19910;-76
2020/12/24 06:26:23;;;;;;;;;;;6.00;96.50;;;;;;4957043;28;20401;-76
2020/12/24 06:28:52;;;;;;;;;;;6.10;96.50;;;;;;4973895;28;19942;-76
2020/12/24 06:31:19;;;;;;;;;;;6.10;96.40;;;;;;4959602;28;19906;-76
2020/12/24 06:33:44;;;;;;;;;;;6.10;96.30;;;;;;4974033;28;19911;-75
2020/12/24 06:36:28;;;;;;;;;;;6.10;96.40;;;;;;4958214;29;19989;-76
2020/12/24 06:38:54;;;;;;;;;;;6.20;96.40;;;;;;4961165;28;19910;-78
2020/12/24 06:41:24;;;;;;;;;;;6.20;96.40;;;;;;4963611;29;19934;-76
2020/12/24 06:43:49;;;;;;;;;;;6.20;96.40;;;;;;4959406;28;20387;-76
2020/12/24 06:46:15;;;;;;;;;;;6.30;96.40;;;;;;4976160;28;19922;-76
2020/12/24 06:48:41;;;;;;;;;;;6.30;96.50;;;;;;4960153;28;19917;-76
2020/12/24 06:51:06;;;;;;;;;;;6.30;96.40;;;;;;4973239;28;19910;-75
2020/12/24 06:53:33;;;;;;;;;;;6.30;96.20;;;;;;4956724;28;19907;-75
2020/12/24 06:56:14;;;;;;;;;;;6.30;96.10;;;;;;4956552;28;19910;-75
2020/12/24 06:58:40;;;;;;;;;;;6.30;96.20;;;;;;4970679;28;20415;-74
2020/12/24 07:01:05;;;;;;;;;;;6.40;96.30;;;;;;4958262;28;19907;-75
2020/12/24 07:03:35;;;;;;;;;;;6.40;96.30;;;;;;4959444;28;20060;-75
2020/12/24 07:06:00;;;;;;;;;;;6.50;96.30;;;;;;4961758;28;19941;-77
2020/12/24 07:08:35;;;;;;;;;;;6.50;96.30;;;;;;4973376;28;19981;-75
2020/12/24 07:11:02;;;;;;;;;;;6.50;96.10;;;;;;4972147;28;20335;-75
2020/12/24 07:13:30;;;;;;;;;;;6.50;96.10;;;;;;4972952;28;19916;-75
2020/12/24 07:15:56;;;;;;;;;;;6.40;95.80;;;;;;4957337;29;19962;-77
2020/12/24 07:18:23;;;;;;;;;;;6.50;95.90;;;;;;4957327;28;19911;-75
2020/12/24 07:20:49;;;;;;;;;;;6.50;96.10;;;;;;4974561;28;19906;-75
2020/12/24 07:23:17;;;;;;;;;;;6.60;96.20;;;;;;4961605;28;20379;-76
2020/12/24 07:25:45;;;;;;;;;;;6.80;96.40;;;;;;4960629;28;19969;-76
2020/12/24 07:28:14;;;;;;;;;;;6.80;95.90;;;;;;4958988;28;19906;-76
2020/12/24 07:30:41;;;;;;;;;;;6.90;95.60;;;;;;4960232;28;19998;-76
2020/12/24 07:33:07;;;;;;;;;;;6.90;95.60;;;;;;4973139;28;19906;-75
2020/12/24 07:35:32;;;;;;;;;;;6.90;95.60;;;;;;4954759;29;20390;-75
2020/12/24 07:37:58;;;;;;;;;;;6.90;95.60;;;;;;4955210;28;19906;-75
2020/12/24 07:40:31;;;;;;;;;;;7.00;95.60;;;;;;4969589;28;19914;-76
2020/12/24 07:43:05;;;;;;;;;;;7.00;95.60;;;;;;4954926;28;19918;-76
2020/12/24 07:45:31;;;;;;;;;;;7.10;95.60;;;;;;4955220;28;19910;-77
2020/12/24 07:47:56;;;;;;;;;;;7.00;95.50;;;;;;4955975;29;20005;-76
2020/12/24 07:50:29;;;;;;;;;;;7.10;95.60;;;;;;4971530;28;20339;-77
2020/12/24 07:52:55;;;;;;;;;;;7.10;95.60;;;;;;4971446;28;19910;-75
2020/12/24 07:55:21;;;;;;;;;;;7.10;95.60;;;;;;4954605;28;19910;-76
2020/12/24 07:57:46;;;;;;;;;;;7.20;95.70;;;;;;4953553;29;19914;-76
2020/12/24 08:00:12;;;;;;;;;;;7.20;95.70;;;;;;4967241;28;19914;-76
2020/12/24 08:02:37;;;;;;;;;;;7.30;95.60;;;;;;4952146;29;19906;-76
2020/12/24 08:05:02;;;;;;;;;;;7.30;95.70;;;;;;4967710;28;19910;-76
2020/12/24 08:07:29;;;;;;;;;;;7.40;95.60;;;;;;4966532;28;20008;-77
2020/12/24 08:10:08;;;;;;;;;;;7.40;95.50;;;;;;4967843;28;20382;-76
2020/12/24 08:12:33;;;;;;;;;;;7.50;95.50;;;;;;4969155;28;19942;-76
2020/12/24 08:15:10;;;;;;;;;;;7.50;95.40;;;;;;4946790;29;19918;-75
2020/12/24 08:17:40;;;;;;;;;;;7.50;95.30;;;;;;4945696;29;20351;-75
2020/12/24 08:20:07;;;;;;;;;;;7.60;95.30;;;;;;4941219;29;20009;-76
2020/12/24 08:22:36;;;;;;;;;;;7.60;95.30;;;;;;4939004;29;19918;-76
2020/12/24 08:25:04;;;;;;;;;;;7.60;95.20;;;;;;4961156;28;19906;-75
2020/12/24 08:27:31;;;;;;;;;;;7.70;95.20;;;;;;4939006;28;19918;-76
2020/12/24 08:29:58;;;;;;;;;;;7.70;95.20;;;;;;4933156;29;19958;-76
2020/12/24 08:32:24;;;;;;;;;;;7.80;95.20;;;;;;4934056;29;19922;-76
2020/12/24 08:34:49;;;;;;;;;;;7.80;95.20;;;;;;4933082;29;19907;-77
2020/12/24 08:37:25;;;;;;;;;;;7.80;95.10;;;;;;4932576;29;19911;-76
2020/12/24 08:39:50;;;;;;;;;;;7.90;95.10;;;;;;4932246;29;19906;-77
2020/12/24 08:42:17;;;;;;;;;;;7.90;95.00;;;;;;4932384;29;19965;-75
2020/12/24 08:44:42;;;;;;;;;;;7.90;95.00;;;;;;4932424;29;20435;-77
2020/12/24 08:47:08;;;;;;;;;;;8.00;94.90;;;;;;4946947;29;19914;-76
2020/12/24 08:49:41;;;;;;;;;;;8.00;94.90;;;;;;4933885;29;19998;-77
2020/12/24 08:52:22;;;;;;;;;;;8.00;94.70;;;;;;4951087;29;20368;-76
2020/12/24 08:55:01;;;;;;;;;;;8.00;94.50;;;;;;4951930;29;19910;-76
2020/12/24 08:57:26;;;;;;;;;;;8.10;94.50;;;;;;4936017;29;19918;-76
2020/12/24 08:59:56;;;;;;;;;;;8.10;94.30;;;;;;4934585;29;19919;-75
2020/12/24 09:02:25;;;;;;;;;;;8.10;94.10;;;;;;4936350;29;19946;-76
2020/12/24 09:04:54;;;;;;;;;;;8.10;93.90;;;;;;4937081;29;19907;-79
2020/12/24 09:07:27;;;;;;;;;;;8.10;93.80;;;;;;4936518;29;19925;-78
2020/12/24 09:10:02;;;;;;;;;;;8.10;94.10;;;;;;4936297;29;19911;-76
2020/12/24 09:12:28;;;;;;;;;;;8.10;93.70;;;;;;4936067;29;19966;-76
2020/12/24 09:15:00;;;;;;;;;;;8.10;93.70;;;;;;4935745;29;19915;-77
2020/12/24 09:17:26;;;;;;;;;;;8.10;93.80;;;;;;4936960;29;19917;-75
2020/12/24 09:20:02;;;;;;;;;;;8.10;93.70;;;;;;4947632;29;19914;-77
2020/12/24 09:22:28;;;;;;;;;;;8.10;93.70;;;;;;4955116;28;19961;-75
2020/12/24 09:24:53;;;;;;;;;;;8.10;93.80;;;;;;4954667;29;19910;-76
2020/12/24 09:27:19;;;;;;;;;;;8.10;93.90;;;;;;4969674;28;19918;-76
2020/12/24 09:29:45;;;;;;;;;;;8.20;93.90;;;;;;4954645;29;20363;-76
2020/12/24 09:32:11;;;;;;;;;;;8.20;93.80;;;;;;4954593;28;20402;-75
2020/12/24 09:34:37;;;;;;;;;;;8.20;93.60;;;;;;4954091;28;19906;-77
2020/12/24 09:37:02;;;;;;;;;;;8.20;93.80;;;;;;4969698;28;19988;-79
2020/12/24 09:39:27;;;;;;;;;;;8.30;93.90;;;;;;4954696;29;20295;-76
2020/12/24 09:41:53;;;;;;;;;;;8.30;93.70;;;;;;4953965;29;19917;-76
2020/12/24 09:44:18;;;;;;;;;;;8.30;93.50;;;;;;4968690;28;19961;-75
2020/12/24 09:46:46;;;;;;;;;;;8.30;93.50;;;;;;4968799;28;19945;-75
2020/12/24 09:49:12;;;;;;;;;;;8.30;93.50;;;;;;4954088;28;19910;-75
2020/12/24 09:51:37;;;;;;;;;;;8.40;93.60;;;;;;4968829;28;20286;-77
2020/12/24 09:54:04;;;;;;;;;;;8.40;93.80;;;;;;4954148;29;19982;-76
2020/12/24 09:56:29;;;;;;;;;;;8.40;93.70;;;;;;4953730;28;19910;-76
2020/12/24 09:58:55;;;;;;;;;;;8.40;93.70;;;;;;4968808;28;19929;-79
2020/12/24 10:01:20;;;;;;;;;;;8.30;93.50;;;;;;4951730;28;19910;-76
2020/12/24 10:03:46;;;;;;;;;;;8.30;93.60;;;;;;4968946;28;20510;-76
2020/12/24 10:06:12;;;;;;;;;;;8.30;93.70;;;;;;4968849;28;20009;-77
2020/12/24 10:08:37;;;;;;;;;;;8.30;93.70;;;;;;4954500;28;19910;-75
2020/12/24 10:11:03;;;;;;;;;;;8.30;93.70;;;;;;4954672;28;19917;-76
2020/12/24 10:13:28;;;;;;;;;;;8.30;93.60;;;;;;4969389;28;20327;-79
2020/12/24 10:15:54;;;;;;;;;;;8.30;93.50;;;;;;4954523;29;19956;-77
2020/12/24 10:18:19;;;;;;;;;;;8.30;93.40;;;;;;4954770;29;20343;-80
2020/12/24 10:20:45;;;;;;;;;;;8.30;93.40;;;;;;4956095;29;19910;-80
2020/12/24 10:23:10;;;;;;;;;;;8.30;93.40;;;;;;4954813;29;20332;-81
2020/12/24 10:25:39;;;;;;;;;;;8.30;93.40;;;;;;4968847;28;19969;-78
2020/12/24 10:28:07;;;;;;;;;;;8.30;93.50;;;;;;4953793;28;19954;-75
2020/12/24 10:30:33;;;;;;;;;;;8.30;93.40;;;;;;4968684;28;20000;-77
2020/12/24 10:32:58;;;;;;;;;;;8.30;93.40;;;;;;4953668;28;20002;-80
2020/12/24 10:35:24;;;;;;;;;;;8.40;93.50;;;;;;4953976;29;19914;-77
2020/12/24 10:37:49;;;;;;;;;;;8.40;93.20;;;;;;4953217;29;19906;-81
2020/12/24 10:40:15;;;;;;;;;;;8.40;93.00;;;;;;4953549;29;20005;-77
2020/12/24 10:42:45;;;;;;;;;;;8.40;93.00;;;;;;4953565;29;19907;-81
2020/12/24 10:45:10;;;;;;;;;;;8.40;93.10;;;;;;4953265;29;19941;-78
2020/12/24 10:47:35;;;;;;;;;;;8.40;93.20;;;;;;4952529;29;19962;-79
2020/12/24 10:50:01;;;;;;;;;;;8.40;93.30;;;;;;4952508;29;19910;-77
2020/12/24 10:52:26;;;;;;;;;;;8.40;93.30;;;;;;4952620;29;19914;-77
2020/12/24 10:54:52;;;;;;;;;;;8.40;93.20;;;;;;4952533;29;19914;-78
2020/12/24 10:57:17;;;;;;;;;;;8.40;93.30;;;;;;4952334;29;20283;-79
2020/12/24 10:59:43;;;;;;;;;;;8.40;92.80;;;;;;4967206;28;19958;-77
2020/12/24 11:02:08;;;;;;;;;;;8.40;92.40;;;;;;4952501;29;19937;-77
2020/12/24 11:04:34;;;;;;;;;;;8.40;92.10;;;;;;4967369;28;19954;-79
2020/12/24 11:06:59;;;;;;;;;;;8.40;92.20;;;;;;4953001;28;20435;-78
2020/12/24 11:09:25;;;;;;;;;;;8.40;92.00;;;;;;4952253;29;19910;-76
2020/12/24 11:11:50;;;;;;;;;;;8.40;92.00;;;;;;4950611;28;19946;-77
2020/12/24 11:14:16;;;;;;;;;;;8.50;91.90;;;;;;4952017;29;20345;-76
2020/12/24 11:16:41;;;;;;;;;;;8.50;91.90;;;;;;4966724;28;19908;-81
2020/12/24 11:19:07;;;;;;;;;;;8.50;92.10;;;;;;4965924;28;19910;-78
2020/12/24 11:21:33;;;;;;;;;;;8.50;92.30;;;;;;4933058;29;20000;-78
2020/12/24 11:24:06;;;;;;;;;;;8.50;92.20;;;;;;4932741;29;19961;-78
2020/12/24 11:26:32;;;;;;;;;;;8.60;92.40;;;;;;4933168;29;19930;-81
2020/12/24 11:28:58;;;;;;;;;;;8.50;92.30;;;;;;4932275;29;19914;-81
2020/12/24 11:31:24;;;;;;;;;;;8.50;92.40;;;;;;4948303;28;20288;-76
2020/12/24 11:33:50;;;;;;;;;;;8.50;92.50;;;;;;4932403;29;20375;-80
2020/12/24 11:36:15;;;;;;;;;;;8.50;92.50;;;;;;4948231;28;19925;-77
2020/12/24 11:38:41;;;;;;;;;;;8.60;92.50;;;;;;4932363;29;19907;-77
2020/12/24 11:41:10;;;;;;;;;;;8.60;92.50;;;;;;4932482;29;19914;-79
2020/12/24 11:43:40;;;;;;;;;;;8.60;92.50;;;;;;4932595;29;20300;-92
2020/12/24 11:55:15;;;;;;;3.55;3.10;;;38.60;24.00;;;;;;5084187;28;20498;-73
2020/12/24 12:15:14;;;;;;;12.23;8.05;;;20.30;48.70;;;;;;5062311;28;20961;-69
2020/12/24 12:17:41;;;;;;;11.40;9.15;;;17.70;53.30;;;;;;5061053;28;20135;-69
2020/12/24 12:20:06;;;;;;;15.27;10.65;;;16.10;56.70;;;;;;5061133;28;20032;-70
2020/12/24 12:22:32;;;;;;;36.05;31.17;;;14.60;62.00;;;;;;5062761;28;20445;-70
2020/12/24 12:24:58;;;;;;;19.48;15.15;;;13.40;66.90;;;;;;5060626;28;20027;-70
2020/12/24 12:27:23;;;;;;;21.25;13.73;;;12.40;71.20;;;;;;5050501;28;20031;-70
2020/12/24 12:29:49;;;;;;;20.30;13.90;;;11.70;74.20;;;;;;5066409;28;20497;-71
2020/12/24 12:32:14;;;;;;;;;;;11.20;77.60;;;;;;5064565;28;20053;-70
2020/12/24 12:34:40;;;;;;;22.10;15.57;;;10.70;79.80;;;;;;5064672;28;19939;-71
2020/12/24 12:37:05;;;;;;;;;;;10.30;81.60;;;;;;5065733;28;20036;-69
2020/12/24 12:39:31;;;;;;;28.42;18.55;;;10.00;83.00;;;;;;5063796;28;19954;-71
2020/12/24 12:41:56;;;;;;;;;;;9.70;84.40;;;;;;5065588;28;20556;-70
2020/12/24 12:44:22;;;;;;;25.55;19.63;;;9.60;86.30;;;;;;5063560;28;19904;-70
2020/12/24 12:46:47;;;;;;;;;;;9.30;87.30;;;;;;5060256;28;20016;-70
2020/12/24 12:49:13;;;;;;;26.40;17.92;;;9.20;88.00;;;;;;5059790;28;20328;-71
2020/12/24 12:51:38;;;;;;;;;;;9.10;88.70;;;;;;5065608;28;20028;-70
2020/12/24 12:54:04;;;;;;;28.83;18.80;;;8.90;89.30;;;;;;5063599;28;20399;-70
2020/12/24 12:56:30;;;;;;;;;;;8.80;90.00;;;;;;5063889;28;20152;-69
2020/12/24 12:58:56;;;;;;;23.13;16.00;;;8.80;90.30;;;;;;5063598;28;20335;-69
2020/12/24 13:01:21;;;;;;;;;;;8.60;90.90;;;;;;5065643;28;20051;-70
2020/12/24 13:03:47;;;;;;;26.52;17.95;;;8.60;90.80;;;;;;5063300;28;19912;-69
2020/12/24 13:06:16;;;;;;;;;;;8.50;90.90;;;;;;5064668;28;20037;-69
2020/12/24 13:08:44;;;;;;;30.25;18.10;;;8.50;91.00;;;;;;5062820;28;19916;-70
2020/12/24 13:11:10;;;;;;;28.83;19.77;;;8.50;91.30;;;;;;5062933;28;20036;-70
2020/12/24 13:13:37;;;;;;;30.70;22.17;;;8.40;91.40;;;;;;5064560;28;20052;-70
2020/12/24 13:16:04;;;;;;;32.58;22.48;;;8.40;91.60;;;;;;5064445;28;20032;-70
2020/12/24 13:18:29;;;;;;;34.40;23.80;;;8.40;91.70;;;;;;5064288;28;20036;-70
2020/12/24 13:20:56;;;;;;;;;;;8.40;91.70;;;;;;5063542;28;20025;-70
2020/12/24 13:23:23;;;;;;;37.85;22.40;;;8.30;91.70;;;;;;5063199;28;20251;-70
2020/12/24 13:25:48;;;;;;;39.58;24.98;;;8.30;92.00;;;;;;5047196;28;20033;-70
2020/12/24 13:28:14;;;;;;;;;;;8.30;91.80;;;;;;5041913;28;20033;-69
2020/12/24 13:30:40;;;;;;;36.38;21.98;;;8.20;91.90;;;;;;5039319;28;19916;-69
2020/12/24 13:33:05;;;;;;;;;;;8.10;92.00;;;;;;5041143;28;20025;-69
2020/12/24 13:35:31;;;;;;;37.60;23.92;;;8.10;92.20;;;;;;5040936;28;20314;-69
2020/12/24 13:37:56;;;;;;;;;;;8.00;92.20;;;;;;5038422;28;20113;-69
2020/12/24 13:40:22;;;;;;;44.60;25.88;;;8.00;92.30;;;;;;5039824;28;20405;-69
2020/12/24 13:42:47;;;;;;;;;;;7.90;92.40;;;;;;5038484;28;20040;-70
2020/12/24 13:45:14;;;;;;;41.17;26.30;;;7.90;92.70;;;;;;5035268;28;20293;-69
2020/12/24 13:47:40;;;;;;;43.95;26.73;;;7.90;92.60;;;;;;5038826;28;20116;-70
2020/12/24 13:50:05;;;;;;;;;;;7.90;92.60;;;;;;5037829;28;20565;-70
2020/12/24 13:52:31;;;;;;;47.10;26.48;;;7.80;92.70;;;;;;5038427;28;19912;-70
2020/12/24 13:54:56;;;;;;;;;;;7.80;92.90;;;;;;5039949;28;20079;-70
2020/12/24 13:57:22;;;;;;;55.55;28.27;;;7.80;93.00;;;;;;5036462;28;20024;-70
2020/12/24 13:59:48;;;;;;;;;;;7.70;93.10;;;;;;5033415;28;20414;-71
2020/12/24 14:02:13;;;;;;;46.58;28.17;;;7.70;93.20;;;;;;5034278;28;19952;-71
2020/12/24 14:04:39;;;;;;;;;;;7.70;93.20;;;;;;5029853;28;20053;-70
2020/12/24 14:07:04;;;;;;;46.83;25.02;;;7.70;93.30;;;;;;5028219;28;19921;-70
2020/12/24 14:09:30;;;;;;;;;;;7.70;93.30;;;;;;5031610;28;20029;-68
2020/12/24 14:11:55;;;;;;;40.03;23.95;;;7.70;93.40;;;;;;5030408;28;19909;-70
2020/12/24 14:14:21;;;;;;;;;;;7.60;93.50;;;;;;5030463;28;20046;-70
2020/12/24 14:16:47;;;;;;;36.92;23.02;;;7.60;93.60;;;;;;5029554;28;19921;-69
2020/12/24 14:19:12;;;;;;;;;;;7.60;93.70;;;;;;5030571;28;20041;-71
2020/12/24 14:21:41;;;;;;;37.78;22.35;;;7.50;93.70;;;;;;5036357;28;20403;-70
2020/12/24 14:24:06;;;;;;;35.03;21.45;;;7.50;93.80;;;;;;5049519;28;20029;-71
2020/12/24 14:26:32;;;;;;;;;;;7.60;93.90;;;;;;5049221;28;20078;-71
2020/12/24 14:28:58;;;;;;;37.45;23.45;;;7.60;93.90;;;;;;5049882;28;20007;-70
2020/12/24 14:31:23;;;;;;;;;;;7.50;93.90;;;;;;5048898;28;20579;-70
2020/12/24 14:33:49;;;;;;;39.45;23.63;;;7.50;94.00;;;;;;5048048;28;20538;-70
2020/12/24 14:36:15;;;;;;;;;;;7.50;94.00;;;;;;5049802;28;20470;-70
2020/12/24 14:38:41;;;;;;;47.58;26.52;;;7.50;94.10;;;;;;5048548;28;19916;-70